Time;durP1;ratioP1;P1;durP2;ratioP2;P2;SDS_P1;SDS_P2;PMS_P1;PMS_P2;Temp;Humidity;BMP_temperature;BMP_pressure;BME280_temperature;BME280_humidity;BME280_pressure;Samples;Min_cycle;Max_cycle;Signal;HPM_P1;HPM_P2
2022/06/30 00:01:13;;;;;;;5.78;4.93;;;23.80;99.90;;;;;;6145650;28;88430;-65
2022/06/30 00:04:17;;;;;;;5.47;4.97;;;23.70;99.90;;;;;;6151563;28;89148;-64
2022/06/30 00:07:19;;;;;;;5.97;5.13;;;23.70;99.90;;;;;;6135629;28;87886;-65
2022/06/30 00:10:22;;;;;;;6.53;5.43;;;23.80;99.90;;;;;;6152475;28;90014;-65
2022/06/30 00:13:24;;;;;;;5.70;4.80;;;23.70;99.90;;;;;;6148535;28;89120;-65
2022/06/30 00:16:25;;;;;;;5.63;5.07;;;23.70;99.90;;;;;;6149601;28;89071;-64
2022/06/30 00:19:29;;;;;;;7.43;5.07;;;23.70;99.90;;;;;;6154258;28;88353;-65
2022/06/30 00:22:31;;;;;;;5.88;5.28;;;23.70;99.90;;;;;;6158158;28;89119;-65
2022/06/30 00:25:33;;;;;;;5.78;4.93;;;23.70;99.90;;;;;;6143858;28;87970;-65
2022/06/30 00:28:35;;;;;;;6.72;5.03;;;23.70;99.90;;;;;;6158644;28;89132;-65
2022/06/30 00:31:37;;;;;;;5.10;4.60;;;23.70;99.90;;;;;;6148835;28;88486;-65
2022/06/30 00:34:40;;;;;;;5.32;4.75;;;23.70;99.90;;;;;;6156745;28;89061;-65
2022/06/30 00:37:42;;;;;;;6.18;4.88;;;23.70;99.90;;;;;;6155744;28;89875;-65
2022/06/30 00:40:46;;;;;;;6.25;5.57;;;23.70;99.90;;;;;;6134351;28;90040;-65
2022/06/30 00:43:49;;;;;;;5.82;4.95;;;23.70;99.90;;;;;;6155262;28;89181;-65
2022/06/30 00:46:51;;;;;;;5.43;4.60;;;23.70;99.90;;;;;;6140188;28;89412;-65
2022/06/30 00:49:55;;;;;;;6.57;4.80;;;23.70;99.90;;;;;;6153289;28;89455;-65
2022/06/30 00:52:58;;;;;;;5.20;4.70;;;23.70;99.90;;;;;;6151531;28;89110;-65
2022/06/30 00:56:03;;;;;;;5.47;4.68;;;23.70;99.90;;;;;;6157964;28;89144;-65
2022/06/30 00:59:06;;;;;;;4.75;4.28;;;23.70;99.90;;;;;;6140718;28;89227;-65
2022/06/30 01:02:09;;;;;;;4.75;4.30;;;23.70;99.90;;;;;;6146568;28;88300;-65
2022/06/30 01:05:14;;;;;;;4.93;4.47;;;23.70;99.90;;;;;;6143098;28;89184;-65
2022/06/30 01:08:17;;;;;;;4.90;4.40;;;23.70;99.90;;;;;;6134255;28;89085;-65
2022/06/30 01:14:38;;;;;;;5.07;4.57;;;23.70;99.90;;;;;;6151196;28;87228;-64
2022/06/30 01:17:40;;;;;;;4.78;4.38;;;23.70;99.90;;;;;;6151413;28;89111;-65
2022/06/30 01:20:44;;;;;;;4.22;3.88;;;23.70;99.90;;;;;;6146215;28;89230;-65
2022/06/30 01:23:47;;;;;;;4.70;4.30;;;23.70;99.90;;;;;;6142252;28;89112;-65
2022/06/30 01:26:49;;;;;;;4.20;3.70;;;23.70;99.90;;;;;;6146403;28;89123;-65
2022/06/30 01:29:51;;;;;;;4.30;3.90;;;23.70;99.90;;;;;;6150407;28;89238;-64
2022/06/30 01:32:53;;;;;;;4.07;3.75;;;23.60;99.90;;;;;;6153616;28;88267;-65
2022/06/30 01:35:56;;;;;;;3.92;3.60;;;23.70;99.90;;;;;;6148327;28;89425;-65
2022/06/30 01:39:00;;;;;;;3.55;3.35;;;23.70;99.90;;;;;;6134772;28;88784;-65
2022/06/30 01:42:02;;;;;;;3.55;3.25;;;23.60;99.90;;;;;;6137447;28;90380;-65
2022/06/30 01:45:05;;;;;;;4.15;3.65;;;23.60;99.90;;;;;;6152529;28;89002;-65
2022/06/30 01:48:07;;;;;;;3.97;3.65;;;23.60;99.90;;;;;;6134232;28;89400;-65
2022/06/30 01:51:09;;;;;;;3.88;3.58;;;23.70;99.90;;;;;;6157086;28;89130;-65
2022/06/30 01:54:13;;;;;;;4.03;3.65;;;23.60;99.90;;;;;;6145442;28;89068;-65
2022/06/30 01:57:15;;;;;;;3.97;3.67;;;23.60;99.90;;;;;;6149782;28;89073;-65
2022/06/30 02:00:19;;;;;;;3.75;3.40;;;23.60;99.90;;;;;;6152508;28;89427;-65
2022/06/30 02:03:21;;;;;;;3.50;3.30;;;23.60;99.90;;;;;;6151770;28;88526;-65
2022/06/30 02:06:24;;;;;;;3.70;3.35;;;23.60;99.90;;;;;;6154236;28;89003;-65
2022/06/30 02:09:28;;;;;;;3.70;3.40;;;23.60;99.90;;;;;;6151181;28;89086;-65
2022/06/30 02:12:48;;;;;;;3.22;2.92;;;23.60;99.90;;;;;;6146492;28;90375;-65
2022/06/30 02:15:50;;;;;;;3.30;3.10;;;23.60;99.90;;;;;;6152043;28;87957;-65
2022/06/30 02:18:53;;;;;;;3.47;3.20;;;23.60;99.90;;;;;;6157464;28;89060;-65
2022/06/30 02:21:55;;;;;;;3.50;3.30;;;23.60;99.90;;;;;;6154791;28;89409;-65
2022/06/30 02:24:58;;;;;;;3.50;3.20;;;23.60;99.90;;;;;;6151438;28;89099;-65
2022/06/30 02:28:02;;;;;;;3.90;3.60;;;23.60;99.90;;;;;;6132427;28;89045;-65
2022/06/30 02:31:04;;;;;;;3.45;3.20;;;23.60;99.90;;;;;;6147681;28;87589;-65
2022/06/30 02:34:06;;;;;;;3.83;3.53;;;23.60;99.90;;;;;;6149886;28;87228;-65
2022/06/30 02:37:08;;;;;;;3.47;3.17;;;23.60;99.90;;;;;;6147453;28;89536;-65
2022/06/30 02:40:12;;;;;;;3.55;3.25;;;23.50;99.90;;;;;;6148661;28;89060;-65
2022/06/30 02:43:14;;;;;;;4.03;3.55;;;23.50;99.90;;;;;;6146210;28;90027;-65
2022/06/30 02:46:16;;;;;;;4.05;3.65;;;23.60;99.90;;;;;;6141448;28;89098;-65
2022/06/30 02:49:19;;;;;;;4.07;3.78;;;23.50;99.90;;;;;;6142868;28;89054;-65
2022/06/30 02:52:20;;;;;;;4.60;3.70;;;23.60;99.90;;;;;;6138202;28;89429;-65
2022/06/30 02:55:24;;;;;;;5.28;4.80;;;23.50;99.90;;;;;;6142665;28;89083;-65
2022/06/30 02:58:26;;;;;;;5.25;4.85;;;23.50;99.90;;;;;;6144617;28;89415;-65
2022/06/30 03:01:28;;;;;;;5.70;5.20;;;23.60;99.90;;;;;;6151992;28;89096;-65
2022/06/30 03:04:30;;;;;;;5.95;5.38;;;23.50;99.90;;;;;;6153082;28;88450;-65
2022/06/30 03:07:32;;;;;;;5.63;5.03;;;23.50;99.90;;;;;;6143020;28;89046;-65
2022/06/30 03:10:36;;;;;;;5.47;4.97;;;23.50;99.90;;;;;;6133871;28;89010;-65
2022/06/30 03:13:38;;;;;;;6.68;5.68;;;23.50;99.90;;;;;;6143088;28;90244;-65
2022/06/30 03:16:40;;;;;;;5.45;4.93;;;23.50;99.90;;;;;;6141764;28;89365;-65
2022/06/30 03:19:42;;;;;;;6.28;5.28;;;23.50;99.90;;;;;;6136948;28;89110;-65
2022/06/30 03:22:44;;;;;;;5.53;5.03;;;23.50;99.90;;;;;;6155084;28;87973;-65
2022/06/30 03:25:47;;;;;;;7.05;5.57;;;23.40;99.90;;;;;;6141785;28;89047;-65
2022/06/30 03:28:49;;;;;;;6.50;4.90;;;23.40;99.90;;;;;;6154792;28;89061;-64
2022/06/30 03:31:51;;;;;;;6.55;5.55;;;23.40;99.90;;;;;;6154934;28;88695;-65
2022/06/30 03:34:53;;;;;;;6.30;5.72;;;23.40;99.90;;;;;;6146719;28;87359;-65
2022/06/30 03:37:55;;;;;;;6.03;5.28;;;23.40;99.90;;;;;;6140798;28;88733;-64
2022/06/30 03:40:58;;;;;;;6.07;5.47;;;23.40;99.90;;;;;;6144990;28;89166;-65
2022/06/30 03:44:00;;;;;;;6.82;5.53;;;23.40;99.90;;;;;;6148143;28;90063;-65
2022/06/30 03:47:02;;;;;;;6.82;6.20;;;23.40;99.90;;;;;;6147668;28;89091;-65
2022/06/30 03:50:05;;;;;;;6.80;6.10;;;23.40;99.90;;;;;;6141461;28;89129;-65
2022/06/30 03:53:07;;;;;;;6.65;5.95;;;23.40;99.90;;;;;;6144282;28;89111;-65
2022/06/30 03:56:10;;;;;;;6.90;5.60;;;23.40;99.90;;;;;;6158149;28;89207;-65
2022/06/30 03:59:12;;;;;;;5.65;5.15;;;23.40;99.90;;;;;;6145189;28;88362;-65
2022/06/30 04:02:14;;;;;;;6.25;5.63;;;23.40;99.90;;;;;;6157484;28;88946;-65
2022/06/30 04:05:16;;;;;;;5.65;5.15;;;23.40;99.90;;;;;;6135100;28;88335;-65
2022/06/30 04:08:18;;;;;;;5.65;5.15;;;23.40;99.90;;;;;;6151832;28;89184;-65
2022/06/30 04:11:22;;;;;;;5.82;5.28;;;23.40;99.90;;;;;;6156627;28;88001;-65
2022/06/30 04:14:24;;;;;;;6.20;5.60;;;23.40;99.90;;;;;;6138943;28;88991;-65
2022/06/30 04:17:26;;;;;;;5.80;5.30;;;23.40;99.90;;;;;;6139942;28;89118;-65
2022/06/30 04:20:28;;;;;;;5.68;5.18;;;23.40;99.90;;;;;;6148083;28;88026;-65
2022/06/30 04:23:30;;;;;;;5.72;5.22;;;23.40;99.90;;;;;;6144908;28;89097;-65
2022/06/30 04:26:33;;;;;;;5.60;5.10;;;23.40;99.90;;;;;;6158621;28;89370;-65
2022/06/30 04:29:35;;;;;;;5.60;5.20;;;23.40;99.90;;;;;;6138080;28;89111;-63
2022/06/30 04:32:39;;;;;;;6.00;5.50;;;23.40;99.90;;;;;;6135370;28;89077;-64
2022/06/30 04:35:42;;;;;;;5.70;5.20;;;23.40;99.90;;;;;;6147697;28;86981;-63
2022/06/30 04:38:44;;;;;;;5.72;5.32;;;23.40;99.90;;;;;;6136495;28;89136;-64
2022/06/30 04:41:47;;;;;;;5.97;5.47;;;23.40;99.90;;;;;;6158115;28;89201;-64
2022/06/30 04:44:49;;;;;;;5.30;4.90;;;23.40;99.90;;;;;;6139121;28;88855;-64
2022/06/30 04:47:51;;;;;;;5.43;4.93;;;23.40;99.90;;;;;;6146182;28;88237;-64
2022/06/30 04:50:53;;;;;;;5.05;4.65;;;23.40;99.90;;;;;;6134270;28;89145;-64
2022/06/30 04:53:55;;;;;;;5.13;4.72;;;23.40;99.90;;;;;;6133209;28;89051;-64
2022/06/30 04:56:58;;;;;;;5.00;4.60;;;23.40;99.90;;;;;;6146607;28;89078;-64
2022/06/30 05:00:00;;;;;;;5.60;4.95;;;23.40;99.90;;;;;;6141620;28;89126;-62
2022/06/30 05:03:02;;;;;;;6.55;5.25;;;23.30;99.90;;;;;;6146030;28;89876;-64
2022/06/30 05:06:05;;;;;;;4.78;4.35;;;23.40;99.90;;;;;;6132170;28;88357;-64
2022/06/30 05:09:07;;;;;;;5.43;4.78;;;23.30;99.90;;;;;;6154681;28;89072;-64
2022/06/30 05:12:11;;;;;;;6.65;4.47;;;23.30;99.90;;;;;;6144605;28;89410;-65
2022/06/30 05:15:13;;;;;;;8.27;4.20;;;23.30;99.90;;;;;;6142628;28;90518;-65
2022/06/30 05:18:15;;;;;;;6.45;4.30;;;23.30;99.90;;;;;;6154733;28;89161;-65
2022/06/30 05:21:17;;;;;;;5.22;3.90;;;23.40;99.90;;;;;;6156200;28;89125;-65
2022/06/30 05:27:40;;;;;;;4.38;3.95;;;23.40;99.90;;;;;;6142587;28;87222;-65
2022/06/30 05:30:42;;;;;;;4.80;4.00;;;23.30;99.90;;;;;;6134386;28;89112;-65
2022/06/30 05:33:44;;;;;;;4.72;4.22;;;23.40;99.90;;;;;;6134713;28;89133;-65
2022/06/30 05:36:46;;;;;;;5.32;3.60;;;23.40;99.90;;;;;;6147531;28;88341;-65
2022/06/30 05:39:48;;;;;;;4.03;3.60;;;23.40;99.90;;;;;;6143841;28;89422;-64
2022/06/30 05:42:51;;;;;;;4.00;3.60;;;23.40;99.90;;;;;;6135756;28;89098;-65
2022/06/30 05:45:55;;;;;;;4.55;3.63;;;23.40;99.90;;;;;;6132361;28;90023;-64
2022/06/30 05:48:57;;;;;;;5.97;3.80;;;23.40;99.90;;;;;;6133808;28;88145;-65
2022/06/30 05:51:59;;;;;;;4.15;3.75;;;23.40;99.90;;;;;;6138168;28;89166;-65
2022/06/30 05:55:01;;;;;;;4.65;4.10;;;23.40;99.90;;;;;;6145217;28;89121;-65
2022/06/30 05:58:05;;;;;;;5.32;4.10;;;23.40;99.90;;;;;;6144488;28;89094;-65
2022/06/30 06:01:06;;;;;;;5.20;4.05;;;23.40;99.90;;;;;;6145792;28;89234;-65
2022/06/30 06:04:08;;;;;;;4.68;3.90;;;23.40;99.90;;;;;;6143348;28;89097;-65
2022/06/30 06:07:10;;;;;;;5.95;4.00;;;23.40;99.90;;;;;;6149924;28;87352;-65
2022/06/30 06:10:13;;;;;;;4.25;3.83;;;23.40;99.90;;;;;;6134959;28;89099;-65
2022/06/30 06:13:17;;;;;;;4.20;3.83;;;23.40;99.90;;;;;;6156347;28;89059;-65
2022/06/30 06:16:19;;;;;;;4.32;3.92;;;23.40;99.90;;;;;;6147881;28;90000;-64
2022/06/30 06:19:21;;;;;;;4.00;3.70;;;23.40;99.90;;;;;;6145113;28;89112;-65
2022/06/30 06:22:23;;;;;;;4.55;4.03;;;23.40;99.90;;;;;;6139432;28;89134;-65
2022/06/30 06:25:26;;;;;;;4.18;3.80;;;23.40;99.90;;;;;;6157078;28;89180;-65
2022/06/30 06:31:49;;;;;;;4.20;3.80;;;23.40;99.90;;;;;;6133697;28;87342;-65
2022/06/30 06:34:50;;;;;;;4.13;3.83;;;23.40;99.90;;;;;;6143304;28;89114;-65
2022/06/30 06:37:52;;;;;;;4.43;4.03;;;23.40;99.90;;;;;;6135335;28;87163;-64
2022/06/30 06:40:54;;;;;;;5.22;4.07;;;23.40;99.90;;;;;;6151351;28;87934;-65
2022/06/30 06:43:58;;;;;;;4.40;4.00;;;23.40;99.90;;;;;;6138609;28;89402;-65
2022/06/30 06:47:00;;;;;;;4.03;3.72;;;23.40;99.90;;;;;;6145102;28;90012;-64
2022/06/30 06:50:02;;;;;;;4.68;3.70;;;23.40;99.90;;;;;;6132607;28;89065;-64
2022/06/30 06:53:04;;;;;;;4.38;3.97;;;23.40;99.90;;;;;;6149101;28;87946;-65
2022/06/30 06:56:07;;;;;;;4.30;3.90;;;23.40;99.90;;;;;;6152131;28;88113;-64
2022/06/30 06:59:10;;;;;;;4.28;3.83;;;23.40;99.90;;;;;;6143379;28;89102;-65
2022/06/30 07:02:12;;;;;;;4.60;4.13;;;23.40;99.90;;;;;;6150225;28;89298;-64
2022/06/30 07:05:14;;;;;;;4.20;3.80;;;23.40;99.90;;;;;;6143854;28;89033;-64
2022/06/30 07:08:16;;;;;;;4.15;3.50;;;23.40;99.90;;;;;;6152073;28;88347;-64
2022/06/30 07:11:18;;;;;;;4.47;3.60;;;23.40;99.90;;;;;;6156016;28;88957;-64
2022/06/30 07:14:21;;;;;;;3.92;3.63;;;23.50;99.90;;;;;;6139897;28;89707;-64
2022/06/30 07:17:23;;;;;;;4.32;3.92;;;23.40;99.90;;;;;;6133413;28;90045;-64
2022/06/30 07:20:26;;;;;;;4.00;3.60;;;23.50;99.90;;;;;;6143363;28;89105;-65
2022/06/30 07:23:28;;;;;;;4.10;3.80;;;23.50;99.90;;;;;;6131789;28;89147;-64
2022/06/30 07:26:30;;;;;;;4.63;4.05;;;23.50;99.90;;;;;;6151479;28;89055;-64
2022/06/30 07:29:33;;;;;;;4.13;3.72;;;23.50;99.90;;;;;;6156790;28;89448;-64
2022/06/30 07:32:36;;;;;;;3.97;3.67;;;23.50;99.90;;;;;;6147425;28;89071;-64
2022/06/30 07:35:38;;;;;;;4.30;3.90;;;23.50;99.90;;;;;;6156878;28;89337;-64
2022/06/30 07:38:41;;;;;;;4.18;3.88;;;23.60;99.90;;;;;;6137116;28;88361;-64
2022/06/30 07:41:43;;;;;;;4.28;3.97;;;23.50;99.90;;;;;;6146966;28;89023;-64
2022/06/30 07:44:46;;;;;;;4.07;3.72;;;23.50;99.90;;;;;;6136330;28;89087;-64
2022/06/30 07:47:48;;;;;;;3.97;3.67;;;23.50;99.90;;;;;;6157901;28;90051;-64
2022/06/30 07:50:50;;;;;;;4.07;3.72;;;23.50;99.90;;;;;;6158943;28;89126;-64
2022/06/30 07:53:53;;;;;;;4.13;3.78;;;23.50;99.90;;;;;;6159326;28;88993;-64
2022/06/30 07:56:54;;;;;;;4.03;3.72;;;23.50;99.90;;;;;;6154228;28;89092;-64
2022/06/30 07:59:58;;;;;;;4.22;3.90;;;23.50;99.90;;;;;;6148112;28;89133;-64
2022/06/30 08:03:00;;;;;;;3.97;3.67;;;23.60;99.90;;;;;;6139397;28;89431;-64
2022/06/30 08:06:02;;;;;;;4.28;3.88;;;23.50;99.90;;;;;;6146676;28;89200;-64
2022/06/30 08:09:04;;;;;;;4.07;3.78;;;23.50;99.90;;;;;;6158036;28;87302;-64
2022/06/30 08:12:07;;;;;;;4.18;3.88;;;23.60;99.90;;;;;;6145553;28;87995;-64
2022/06/30 08:15:11;;;;;;;4.35;3.97;;;23.50;99.90;;;;;;6147607;28;88114;-64
2022/06/30 08:18:13;;;;;;;4.72;4.25;;;23.50;99.90;;;;;;6135104;28;90302;-65
2022/06/30 08:21:15;;;;;;;4.30;3.90;;;23.50;99.90;;;;;;6150056;28;89062;-64
2022/06/30 08:24:17;;;;;;;4.20;3.90;;;23.60;99.90;;;;;;6150190;28;90079;-65
2022/06/30 08:27:19;;;;;;;4.43;4.03;;;23.60;99.90;;;;;;6156978;28;89636;-64
2022/06/30 08:30:24;;;;;;;4.25;3.95;;;23.50;99.90;;;;;;6148687;28;89145;-64
2022/06/30 08:33:25;;;;;;;4.40;4.03;;;23.50;99.90;;;;;;6136114;28;89143;-65
2022/06/30 08:36:27;;;;;;;4.70;4.30;;;23.60;99.90;;;;;;6136045;28;89198;-64
2022/06/30 08:42:49;;;;;;;4.55;4.15;;;23.50;99.90;;;;;;6156609;28;87329;-67
2022/06/30 08:45:54;;;;;;;4.45;4.05;;;23.50;99.90;;;;;;6138350;28;89078;-64
2022/06/30 08:48:56;;;;;;;4.40;4.10;;;23.60;99.90;;;;;;6135906;28;89970;-64
2022/06/30 08:52:01;;;;;;;4.60;4.20;;;23.60;99.90;;;;;;6147516;28;89118;-64
2022/06/30 08:55:04;;;;;;;4.65;4.25;;;23.60;99.90;;;;;;6150321;28;89246;-64
2022/06/30 08:58:08;;;;;;;5.18;4.25;;;23.60;99.90;;;;;;6137729;28;89106;-64
2022/06/30 09:01:12;;;;;;;4.57;4.13;;;23.60;99.90;;;;;;6139062;28;88955;-64
2022/06/30 09:04:14;;;;;;;5.20;4.80;;;23.60;99.90;;;;;;6154614;28;89214;-64
2022/06/30 09:07:16;;;;;;;4.43;4.10;;;23.60;99.90;;;;;;6147325;28;90524;-64
2022/06/30 09:10:18;;;;;;;4.78;4.47;;;23.60;99.90;;;;;;6146235;28;88445;-65
2022/06/30 09:13:21;;;;;;;5.10;4.57;;;23.60;99.90;;;;;;6151008;28;89176;-64
2022/06/30 09:16:24;;;;;;;4.60;4.25;;;23.60;99.90;;;;;;6146325;28;89116;-64
2022/06/30 09:19:27;;;;;;;4.85;4.45;;;23.60;99.90;;;;;;6146497;28;89973;-64
2022/06/30 09:22:30;;;;;;;4.95;4.55;;;23.60;99.90;;;;;;6149213;28;89179;-64
2022/06/30 09:25:32;;;;;;;5.18;4.68;;;23.60;99.90;;;;;;6156022;28;89033;-65
2022/06/30 09:28:42;;;;;;;4.93;4.47;;;23.60;99.90;;;;;;6146919;28;89107;-64
2022/06/30 09:31:46;;;;;;;4.97;4.57;;;23.60;99.90;;;;;;6134849;28;89151;-64
2022/06/30 09:34:49;;;;;;;4.90;4.50;;;23.60;99.90;;;;;;6145297;28;89465;-64
2022/06/30 09:37:59;;;;;;;4.38;4.07;;;23.60;99.90;;;;;;6144534;28;89043;-64
2022/06/30 09:41:04;;;;;;;4.32;4.03;;;23.60;99.90;;;;;;6149245;28;87278;-64
2022/06/30 09:44:07;;;;;;;4.82;4.43;;;23.60;99.90;;;;;;6154934;28;89295;-65
2022/06/30 09:47:11;;;;;;;4.70;4.30;;;23.60;99.90;;;;;;6151829;28;87963;-65
2022/06/30 09:50:14;;;;;;;4.80;4.40;;;23.60;99.90;;;;;;6146433;28;90044;-64
2022/06/30 09:53:16;;;;;;;4.55;4.15;;;23.60;99.90;;;;;;6131323;28;88379;-65
2022/06/30 09:56:18;;;;;;;4.90;4.43;;;23.60;99.90;;;;;;6134014;28;89045;-64
2022/06/30 09:59:25;;;;;;;5.10;4.70;;;23.60;99.90;;;;;;6135955;28;89062;-65
2022/06/30 10:02:36;;;;;;;5.72;4.95;;;23.60;99.90;;;;;;6154518;28;89028;-64
2022/06/30 10:05:43;;;;;;;4.68;4.28;;;23.60;99.90;;;;;;6146053;28;89495;-64
2022/06/30 10:08:47;;;;;;;4.80;4.40;;;23.60;99.90;;;;;;6144184;28;89251;-64
2022/06/30 10:11:50;;;;;;;4.63;4.25;;;23.60;99.90;;;;;;6145255;28;88956;-65
2022/06/30 10:14:54;;;;;;;4.15;3.85;;;23.60;99.90;;;;;;6136775;28;89298;-64
2022/06/30 10:17:59;;;;;;;4.45;4.05;;;23.60;99.90;;;;;;6139385;28;89149;-64
2022/06/30 10:21:01;;;;;;;4.20;3.90;;;23.60;99.90;;;;;;6146461;28;90370;-65
2022/06/30 10:24:05;;;;;;;4.50;4.10;;;23.60;99.90;;;;;;6147338;28;88970;-65
2022/06/30 10:27:13;;;;;;;4.32;3.92;;;23.60;99.90;;;;;;6144311;28;89163;-65
2022/06/30 10:30:19;;;;;;;4.78;4.30;;;23.60;99.90;;;;;;6133569;28;89042;-65
2022/06/30 10:33:30;;;;;;;4.35;4.03;;;23.70;99.90;;;;;;6144033;28;89140;-65
2022/06/30 10:36:43;;;;;;;4.32;4.03;;;23.60;99.90;;;;;;6133192;28;90372;-64
2022/06/30 10:39:51;;;;;;;4.07;3.78;;;23.60;99.90;;;;;;6155440;28;89096;-65
2022/06/30 10:42:57;;;;;;;4.22;3.92;;;23.60;99.90;;;;;;6146016;28;88679;-65
2022/06/30 10:46:01;;;;;;;4.32;4.03;;;23.60;99.90;;;;;;6134760;28;89154;-65
2022/06/30 10:49:10;;;;;;;4.40;4.10;;;23.70;99.90;;;;;;6134173;28;88175;-64
2022/06/30 10:52:28;;;;;;;4.80;4.30;;;23.60;99.90;;;;;;6132298;28;90099;-65
2022/06/30 10:55:30;;;;;;;4.63;4.22;;;23.60;99.90;;;;;;6135722;28;89529;-65
2022/06/30 10:58:32;;;;;;;4.70;4.30;;;23.70;99.90;;;;;;6145877;28;89017;-65
2022/06/30 11:01:34;;;;;;;4.63;4.22;;;23.60;99.90;;;;;;6139520;28;89044;-65
2022/06/30 11:04:39;;;;;;;4.43;4.07;;;23.60;99.90;;;;;;6151817;28;89133;-65
2022/06/30 11:07:41;;;;;;;4.57;4.18;;;23.60;99.90;;;;;;6136888;28;87801;-65
2022/06/30 11:10:43;;;;;;;4.25;3.95;;;23.60;99.90;;;;;;6150110;28;89011;-65
2022/06/30 11:13:45;;;;;;;4.57;4.18;;;23.70;99.90;;;;;;6137884;28;88338;-65
2022/06/30 11:16:48;;;;;;;4.95;4.45;;;23.70;99.90;;;;;;6146973;28;89065;-65
2022/06/30 11:20:00;;;;;;;4.75;4.35;;;23.70;99.90;;;;;;6137751;28;89046;-65
2022/06/30 11:23:03;;;;;;;4.60;4.20;;;23.60;99.90;;;;;;6135463;28;90101;-65
2022/06/30 11:29:28;;;;;;;4.65;4.25;;;23.70;99.90;;;;;;6142553;28;87897;-65
2022/06/30 11:32:30;;;;;;;4.65;4.25;;;23.70;99.90;;;;;;6143788;28;89123;-65
2022/06/30 11:35:34;;;;;;;4.55;4.15;;;23.60;99.90;;;;;;6148684;28;89189;-64
2022/06/30 11:38:36;;;;;;;4.72;4.32;;;23.70;99.90;;;;;;6150124;28;89106;-65
2022/06/30 11:41:56;;;;;;;4.57;3.97;;;23.70;99.90;;;;;;6147913;28;89065;-65
2022/06/30 11:44:58;;;;;;;4.45;4.07;;;23.70;99.90;;;;;;6136005;28;89833;-65
2022/06/30 11:48:03;;;;;;;4.78;4.38;;;23.70;99.90;;;;;;6149496;28;88970;-65
2022/06/30 11:51:11;;;;;;;4.15;3.85;;;23.70;99.90;;;;;;6148583;28;89064;-65
2022/06/30 11:54:15;;;;;;;4.80;4.40;;;23.70;99.90;;;;;;6144488;28;89999;-65
2022/06/30 11:57:17;;;;;;;4.78;4.25;;;23.70;99.90;;;;;;6151550;28;91056;-65
2022/06/30 12:00:21;;;;;;;4.65;4.25;;;23.70;99.90;;;;;;6147054;28;89140;-65
2022/06/30 12:03:23;;;;;;;4.43;4.03;;;23.70;99.90;;;;;;6149477;28;89029;-65
2022/06/30 12:06:27;;;;;;;4.68;4.30;;;23.70;99.90;;;;;;6137989;28;89162;-65
2022/06/30 12:09:29;;;;;;;4.63;4.20;;;23.70;99.90;;;;;;6140283;28;89232;-65
2022/06/30 12:12:32;;;;;;;4.72;4.32;;;23.70;99.90;;;;;;6141785;28;89285;-65
2022/06/30 12:15:34;;;;;;;4.95;4.45;;;23.70;99.90;;;;;;6141194;28;88449;-65
2022/06/30 12:18:37;;;;;;;4.90;4.45;;;23.70;99.90;;;;;;6139678;28;88853;-65
2022/06/30 12:21:41;;;;;;;5.03;4.63;;;23.70;99.90;;;;;;6141014;28;87130;-65
2022/06/30 12:24:46;;;;;;;5.10;4.70;;;23.70;99.90;;;;;;6154301;28;90338;-65
2022/06/30 12:27:50;;;;;;;4.70;4.30;;;23.70;99.90;;;;;;6153678;28;89140;-65
2022/06/30 12:30:53;;;;;;;4.70;4.30;;;23.70;99.90;;;;;;6139506;28;89109;-65
2022/06/30 12:33:57;;;;;;;4.90;4.50;;;23.70;99.90;;;;;;6143762;28;88562;-65
2022/06/30 12:37:02;;;;;;;4.70;4.30;;;23.70;99.90;;;;;;6147248;28;89233;-65
2022/06/30 12:40:07;;;;;;;5.03;4.53;;;23.70;99.90;;;;;;6146145;28;89346;-65
2022/06/30 12:43:09;;;;;;;4.60;4.20;;;23.70;99.90;;;;;;6148200;28;89217;-65
2022/06/30 12:46:11;;;;;;;4.60;4.20;;;23.70;99.90;;;;;;6135517;28;88390;-65
2022/06/30 12:49:21;;;;;;;4.45;4.05;;;23.70;99.90;;;;;;6155996;28;90103;-65
2022/06/30 12:52:25;;;;;;;4.60;4.20;;;23.70;99.90;;;;;;6140041;28;89084;-65
2022/06/30 12:55:27;;;;;;;4.57;4.13;;;23.70;99.90;;;;;;6139538;28;90430;-66
2022/06/30 12:58:47;;;;;;;5.63;4.57;;;23.70;99.90;;;;;;6155628;28;89023;-66
2022/06/30 13:01:55;;;;;;;4.28;3.88;;;23.80;99.90;;;;;;6139990;28;89180;-66
2022/06/30 13:04:57;;;;;;;4.82;4.25;;;23.70;99.90;;;;;;6147057;28;89065;-66
2022/06/30 13:08:00;;;;;;;4.50;4.10;;;23.70;99.90;;;;;;6141825;28;89172;-66
2022/06/30 13:11:07;;;;;;;4.18;3.88;;;23.70;99.90;;;;;;6150801;28;89079;-66
2022/06/30 13:14:09;;;;;;;5.18;4.68;;;23.70;99.90;;;;;;6144980;28;90119;-66
2022/06/30 13:17:12;;;;;;;4.82;4.40;;;23.80;99.90;;;;;;6146534;28;88295;-66
2022/06/30 13:20:14;;;;;;;4.75;4.35;;;23.70;99.90;;;;;;6135283;28;88754;-66
2022/06/30 13:23:17;;;;;;;4.78;4.38;;;23.80;99.90;;;;;;6134558;28;89219;-66
2022/06/30 13:26:19;;;;;;;4.60;4.20;;;23.80;99.90;;;;;;6152688;28;89880;-66
2022/06/30 13:29:23;;;;;;;4.22;3.92;;;23.70;99.90;;;;;;6143016;28;89050;-65
2022/06/30 13:32:25;;;;;;;4.28;3.97;;;23.80;99.90;;;;;;6154618;28;89094;-66
2022/06/30 13:35:27;;;;;;;4.38;4.00;;;23.80;99.90;;;;;;6142993;28;88028;-66
2022/06/30 13:38:30;;;;;;;4.68;4.28;;;23.80;99.90;;;;;;6133390;28;89075;-66
2022/06/30 13:41:32;;;;;;;4.30;3.90;;;23.70;99.90;;;;;;6145558;28;89083;-66
2022/06/30 13:44:34;;;;;;;4.38;3.97;;;23.80;99.90;;;;;;6156177;28;89174;-65
2022/06/30 13:47:36;;;;;;;4.50;4.10;;;23.80;99.90;;;;;;6158108;28;88403;-66
2022/06/30 13:50:38;;;;;;;4.18;3.80;;;23.80;99.90;;;;;;6145074;28;89549;-66
2022/06/30 13:53:42;;;;;;;4.80;4.40;;;23.70;99.90;;;;;;6157579;28;89160;-66
2022/06/30 13:56:44;;;;;;;4.50;4.10;;;23.80;99.90;;;;;;6156019;28;90164;-66
2022/06/30 13:59:46;;;;;;;4.40;4.05;;;23.70;99.90;;;;;;6155884;28;89102;-66
2022/06/30 14:02:48;;;;;;;4.57;4.13;;;23.80;99.90;;;;;;6145666;28;88153;-66
2022/06/30 14:05:50;;;;;;;4.50;4.10;;;23.70;99.90;;;;;;6134773;28;89230;-66
2022/06/30 14:08:54;;;;;;;4.80;4.28;;;23.80;99.90;;;;;;6140711;28;88977;-66
2022/06/30 14:11:56;;;;;;;4.10;3.80;;;23.80;99.90;;;;;;6157475;28;89136;-66
2022/06/30 14:14:58;;;;;;;3.95;3.65;;;23.80;99.90;;;;;;6135459;28;89491;-66
2022/06/30 14:18:01;;;;;;;4.18;3.88;;;23.80;99.90;;;;;;6153104;28;87251;-65
2022/06/30 14:21:03;;;;;;;4.00;3.70;;;23.80;99.90;;;;;;6141959;28;89510;-66
2022/06/30 14:24:07;;;;;;;4.20;3.80;;;23.80;99.90;;;;;;6157325;28;89117;-66
2022/06/30 14:27:09;;;;;;;4.43;4.03;;;23.80;99.90;;;;;;6155149;28;90035;-66
2022/06/30 14:30:14;;;;;;;4.00;3.70;;;23.80;99.90;;;;;;6134096;28;89119;-66
2022/06/30 14:33:15;;;;;;;4.22;3.92;;;23.80;99.90;;;;;;6156080;28;87983;-66
2022/06/30 14:36:17;;;;;;;4.55;4.10;;;23.80;99.90;;;;;;6134648;28;89037;-66
2022/06/30 14:39:21;;;;;;;4.10;3.80;;;23.80;99.90;;;;;;6139049;28;89436;-66
2022/06/30 14:45:43;;;;;;;4.10;3.80;;;23.80;99.90;;;;;;6150827;28;87237;-66
2022/06/30 14:48:45;;;;;;;4.10;3.80;;;23.80;99.90;;;;;;6151094;28;88353;-66
2022/06/30 14:51:46;;;;;;;4.13;3.80;;;23.80;99.90;;;;;;6153565;28;88640;-66
2022/06/30 14:54:50;;;;;;;4.38;3.80;;;23.80;99.90;;;;;;6133080;28;89378;-66
2022/06/30 14:57:53;;;;;;;4.07;3.78;;;23.80;99.90;;;;;;6132227;28;90366;-66
2022/06/30 15:00:55;;;;;;;3.85;3.55;;;23.80;99.90;;;;;;6137788;28;89491;-66
2022/06/30 15:03:57;;;;;;;3.97;3.67;;;23.80;99.90;;;;;;6132860;28;89582;-66
2022/06/30 15:06:59;;;;;;;3.90;3.60;;;23.80;99.90;;;;;;6146014;28;89088;-66
2022/06/30 15:10:03;;;;;;;4.00;3.70;;;23.80;99.90;;;;;;6140240;28;89088;-66
2022/06/30 15:13:05;;;;;;;4.15;3.72;;;23.80;99.90;;;;;;6155867;28;89223;-66
2022/06/30 15:16:07;;;;;;;4.00;3.70;;;23.80;99.90;;;;;;6142617;28;89390;-66
2022/06/30 15:19:10;;;;;;;4.07;3.60;;;23.90;99.90;;;;;;6144428;28;88709;-66
2022/06/30 15:25:33;;;;;;;4.30;3.88;;;23.80;99.90;;;;;;6132472;28;87867;-66
2022/06/30 15:28:35;;;;;;;4.03;3.67;;;23.90;99.90;;;;;;6144057;28;88896;-65
2022/06/30 15:31:38;;;;;;;3.80;3.50;;;23.90;99.90;;;;;;6144009;28;89237;-66
2022/06/30 15:34:40;;;;;;;3.80;3.50;;;23.90;99.90;;;;;;6151499;28;89215;-65
2022/06/30 15:37:42;;;;;;;3.78;3.47;;;23.90;99.90;;;;;;6152218;28;89187;-65
2022/06/30 15:40:45;;;;;;;3.67;3.38;;;23.80;99.90;;;;;;6153750;28;89392;-66
2022/06/30 15:43:47;;;;;;;4.20;3.80;;;23.90;99.90;;;;;;6143344;28;89469;-65
2022/06/30 15:46:50;;;;;;;4.10;3.70;;;23.90;99.90;;;;;;6142380;28;88049;-66
2022/06/30 15:49:52;;;;;;;3.90;3.60;;;23.80;99.90;;;;;;6133924;28;88378;-65
2022/06/30 15:52:54;;;;;;;4.38;3.45;;;23.90;99.90;;;;;;6148393;28;89558;-65
2022/06/30 15:55:58;;;;;;;3.70;3.40;;;23.90;99.90;;;;;;6148961;28;90823;-65
2022/06/30 15:59:00;;;;;;;3.95;3.65;;;23.90;99.90;;;;;;6149144;28;90022;-66
2022/06/30 16:02:02;;;;;;;3.75;3.45;;;23.90;99.90;;;;;;6147017;28;88341;-65
2022/06/30 16:05:05;;;;;;;3.65;3.33;;;23.90;99.90;;;;;;6145716;28;89155;-66
2022/06/30 16:08:07;;;;;;;3.83;3.53;;;23.90;99.90;;;;;;6142146;28;88969;-66
2022/06/30 16:11:10;;;;;;;3.80;3.50;;;23.90;99.90;;;;;;6148663;28;89353;-66
2022/06/30 16:14:13;;;;;;;3.90;3.60;;;23.90;99.90;;;;;;6135261;28;89070;-66
2022/06/30 16:17:15;;;;;;;4.13;3.80;;;23.90;99.90;;;;;;6150257;28;89228;-65